Ekin, Indiana
Current Conditions -  °F | °C
As of 10:15 PM on Wednesday 22 Oct 2014 (Local Time) from KTYQ Reporting Station
Haze Haze  
Wind Chill: 43°   Ceiling: Unl
Heat Index: 45°   Visibility: 4mi
Dew Point: 39°   Wind: 5mph
Humidity: 79%   Direction: 90°E
Pressure: 30.27"   Gusts: NA
Location:  40.1832°N, 85.9359°W
Report Text: KTYQ 230215Z AUTO 09004KT 4SM HZ CLR 07/04 A3027 RMK AO2 T00720037
Loading
Personal Weather Stations






























Interactive Weather Map
Tropical Storm Tracking
New forecast layout! Learn more

10-Day Weather Forecast

Advertisements
Track Severe Weather on mobile